createdAt,value
2018-12-21T00:02:07.252Z,7.70
2018-12-21T00:04:35.552Z,7.60
2018-12-21T00:07:03.899Z,7.60
2018-12-21T00:09:32.208Z,7.70
2018-12-21T00:12:00.510Z,7.50
2018-12-21T00:14:28.901Z,7.50
2018-12-21T00:16:57.205Z,7.40
2018-12-21T00:19:25.593Z,7.40
2018-12-21T00:21:53.780Z,7.20
2018-12-21T00:24:22.171Z,7.20
2018-12-21T00:26:50.385Z,7.20
2018-12-21T00:29:18.686Z,7.30
2018-12-21T00:31:52.564Z,7.30
2018-12-21T00:34:26.302Z,7.30
2018-12-21T00:36:59.982Z,7.20
2018-12-21T00:42:22.611Z,7.00
2018-12-21T00:44:57.260Z,7.00
2018-12-21T00:47:25.810Z,7.10
2018-12-21T00:49:54.102Z,7.00
2018-12-21T00:52:22.443Z,7.00
2018-12-21T00:54:50.826Z,7.00
2018-12-21T00:57:19.099Z,7.00
2018-12-21T00:59:49.336Z,7.00
2018-12-21T01:02:17.555Z,6.70
2018-12-21T01:04:46.020Z,6.80
2018-12-21T01:07:14.407Z,6.80
2018-12-21T01:09:42.802Z,6.80
2018-12-21T01:12:11.320Z,6.80
2018-12-21T01:14:40.129Z,6.70
2018-12-21T01:17:08.499Z,6.70
2018-12-21T01:19:36.796Z,6.90
2018-12-21T01:22:05.471Z,7.10
2018-12-21T01:24:33.718Z,7.10
2018-12-21T01:27:02.039Z,7.20
2018-12-21T01:29:30.274Z,7.20
2018-12-21T01:31:58.596Z,7.20
2018-12-21T01:34:26.944Z,7.30
2018-12-21T01:36:55.224Z,7.30
2018-12-21T01:39:23.629Z,7.30
2018-12-21T01:41:51.868Z,7.40
2018-12-21T01:44:20.188Z,7.30
2018-12-21T01:46:48.586Z,7.30
2018-12-21T01:49:17.030Z,7.30
2018-12-21T01:51:47.183Z,7.30
2018-12-21T01:54:15.756Z,7.30
2018-12-21T01:56:44.014Z,7.30
2018-12-21T01:59:12.346Z,7.20
2018-12-21T02:01:40.606Z,7.30
2018-12-21T02:04:08.860Z,7.30
2018-12-21T02:06:37.162Z,7.40
2018-12-21T02:09:07.003Z,7.50
2018-12-21T02:11:35.202Z,7.50
2018-12-21T02:14:03.513Z,7.50
2018-12-21T02:16:31.684Z,7.40
2018-12-21T02:18:59.986Z,7.50
2018-12-21T02:21:28.200Z,7.50
2018-12-21T02:23:56.366Z,7.50
2018-12-21T02:26:24.765Z,7.40
2018-12-21T02:28:53.059Z,7.50
2018-12-21T02:31:21.330Z,7.50
2018-12-21T02:33:49.514Z,7.50
2018-12-21T02:36:17.794Z,7.40
2018-12-21T02:38:46.103Z,7.40
2018-12-21T02:41:14.445Z,7.50
2018-12-21T02:43:42.882Z,7.50
2018-12-21T02:46:11.176Z,7.50
2018-12-21T02:48:39.582Z,7.60
2018-12-21T02:51:07.766Z,7.60
2018-12-21T02:53:35.995Z,7.50
2018-12-21T02:56:04.297Z,7.60
2018-12-21T02:58:32.538Z,7.60
2018-12-21T03:01:00.776Z,7.60
2018-12-21T03:03:29.064Z,7.60
2018-12-21T03:05:57.369Z,7.60
2018-12-21T03:08:25.743Z,7.60
2018-12-21T03:10:53.957Z,7.50
2018-12-21T03:13:22.383Z,7.50
2018-12-21T03:15:50.647Z,7.70
2018-12-21T03:18:18.927Z,7.70
2018-12-21T03:20:47.209Z,7.70
2018-12-21T03:23:15.670Z,7.60
2018-12-21T03:25:43.925Z,7.60
2018-12-21T03:28:12.135Z,7.60
2018-12-21T03:30:40.484Z,7.60
2018-12-21T03:33:08.798Z,7.60
2018-12-21T03:35:37.071Z,7.70
2018-12-21T03:38:05.325Z,7.70
2018-12-21T03:40:33.965Z,7.60
2018-12-21T03:43:02.715Z,7.50
2018-12-21T03:45:31.077Z,7.50
2018-12-21T03:47:59.276Z,7.40
2018-12-21T03:50:27.578Z,7.40
2018-12-21T03:52:55.828Z,7.40
2018-12-21T03:55:24.371Z,7.40
2018-12-21T03:57:52.722Z,7.30
2018-12-21T04:00:20.953Z,7.30
2018-12-21T04:02:49.224Z,7.40
2018-12-21T04:05:17.427Z,7.50
2018-12-21T04:07:45.732Z,7.40
2018-12-21T04:10:14.082Z,7.40
2018-12-21T04:12:42.346Z,7.50
2018-12-21T04:15:10.596Z,7.50
2018-12-21T04:17:38.876Z,7.60
2018-12-21T04:20:07.122Z,7.60
2018-12-21T04:22:35.540Z,7.50
2018-12-21T04:25:04.175Z,7.50
2018-12-21T04:27:32.432Z,7.50
2018-12-21T04:30:00.716Z,7.40
2018-12-21T04:32:29.156Z,7.40
2018-12-21T04:34:57.386Z,7.50
2018-12-21T04:37:25.695Z,7.50
2018-12-21T04:39:53.932Z,7.60
2018-12-21T04:42:22.361Z,7.60
2018-12-21T04:44:50.539Z,7.60
2018-12-21T04:47:18.733Z,7.70
2018-12-21T04:49:46.951Z,7.80
2018-12-21T04:52:15.265Z,7.80
2018-12-21T04:54:43.565Z,7.70
2018-12-21T04:57:11.816Z,7.70
2018-12-21T04:59:40.129Z,7.80
2018-12-21T05:02:08.470Z,7.80
2018-12-21T05:04:36.703Z,7.80
2018-12-21T05:07:12.214Z,7.90
2018-12-21T05:09:35.313Z,7.70
2018-12-21T05:12:03.645Z,7.70
2018-12-21T05:14:31.967Z,7.60
2018-12-21T05:17:00.492Z,7.60
2018-12-21T05:19:28.847Z,7.60
2018-12-21T05:21:57.072Z,7.60
2018-12-21T05:24:25.349Z,7.70
2018-12-21T05:26:53.601Z,7.70
2018-12-21T05:29:21.918Z,7.70
2018-12-21T05:31:50.226Z,7.70
2018-12-21T05:34:18.477Z,7.70
2018-12-21T05:36:46.752Z,7.70
2018-12-21T05:39:15.262Z,7.80
2018-12-21T05:41:43.665Z,7.70
2018-12-21T05:44:11.947Z,7.70
2018-12-21T05:46:40.250Z,7.80
2018-12-21T05:49:08.598Z,7.80
2018-12-21T05:51:36.990Z,7.70
2018-12-21T05:54:05.341Z,7.80
2018-12-21T05:56:33.811Z,7.70
2018-12-21T05:59:02.081Z,7.70
2018-12-21T06:01:30.293Z,7.70
2018-12-21T06:03:58.513Z,7.70
2018-12-21T06:06:26.740Z,7.70
2018-12-21T06:08:55.044Z,7.60
2018-12-21T06:11:23.397Z,7.60
2018-12-21T06:13:51.813Z,7.60
2018-12-21T06:16:20.084Z,7.60
2018-12-21T06:18:48.272Z,7.70
2018-12-21T06:21:16.634Z,7.70
2018-12-21T06:23:44.894Z,7.80
2018-12-21T06:26:13.247Z,7.80
2018-12-21T06:28:41.514Z,7.90
2018-12-21T06:31:09.894Z,7.80
2018-12-21T06:33:38.216Z,7.80
2018-12-21T06:36:06.575Z,7.80
2018-12-21T06:38:35.330Z,7.80
2018-12-21T06:41:04.197Z,7.60
2018-12-21T06:43:32.815Z,7.70
2018-12-21T06:46:01.337Z,7.80
2018-12-21T06:48:29.997Z,7.80
2018-12-21T06:50:58.709Z,7.90
2018-12-21T06:53:27.223Z,7.80
2018-12-21T06:55:55.465Z,7.90
2018-12-21T06:58:24.497Z,7.90
2018-12-21T07:00:52.971Z,7.90
2018-12-21T07:03:22.420Z,7.80
2018-12-21T07:05:50.751Z,7.80
2018-12-21T07:08:19.408Z,7.80
2018-12-21T07:10:47.761Z,7.70
2018-12-21T07:13:16.193Z,7.70
2018-12-21T07:15:44.550Z,7.80
2018-12-21T07:18:12.951Z,7.70
2018-12-21T07:20:41.267Z,7.70
2018-12-21T07:23:09.623Z,7.60
2018-12-21T07:25:37.990Z,7.60
2018-12-21T07:28:06.336Z,7.60
2018-12-21T07:30:34.656Z,7.50
2018-12-21T07:33:03.058Z,7.50
2018-12-21T07:35:31.271Z,7.50
2018-12-21T07:37:59.507Z,7.60
2018-12-21T07:40:28.368Z,7.60
2018-12-21T07:42:56.642Z,7.50
2018-12-21T07:45:25.020Z,7.50
2018-12-21T07:47:55.481Z,7.60
2018-12-21T07:50:23.738Z,7.60
2018-12-21T07:52:53.299Z,7.60
2018-12-21T07:55:24.028Z,7.50
2018-12-21T07:57:52.533Z,7.60
2018-12-21T08:00:20.858Z,7.60
2018-12-21T08:02:49.355Z,7.50
2018-12-21T08:05:17.661Z,7.50
2018-12-21T08:07:45.967Z,7.40
2018-12-21T08:10:17.281Z,7.50
2018-12-21T08:12:45.610Z,7.60
2018-12-21T08:15:13.814Z,7.70
2018-12-21T08:17:42.229Z,7.70
2018-12-21T08:20:10.584Z,7.70
2018-12-21T08:22:38.824Z,7.70
2018-12-21T08:25:07.522Z,7.70
2018-12-21T08:27:35.923Z,7.80
2018-12-21T08:30:04.646Z,7.80
2018-12-21T08:32:32.924Z,7.80
2018-12-21T08:35:01.204Z,7.80
2018-12-21T08:37:29.553Z,7.90
2018-12-21T08:39:57.896Z,7.90
2018-12-21T08:42:26.135Z,7.90
2018-12-21T08:44:54.407Z,7.90
2018-12-21T08:47:22.820Z,8.00
2018-12-21T08:49:51.057Z,8.10
2018-12-21T08:52:19.439Z,8.10
2018-12-21T08:54:47.751Z,8.10
2018-12-21T08:57:16.157Z,8.10
2018-12-21T08:59:44.486Z,8.10
2018-12-21T09:02:12.828Z,8.10
2018-12-21T09:04:41.356Z,8.00
2018-12-21T09:07:09.844Z,7.90
2018-12-21T09:09:38.209Z,7.90
2018-12-21T09:12:06.589Z,8.00
2018-12-21T09:14:35.018Z,8.10
2018-12-21T09:17:03.349Z,8.10
2018-12-21T09:19:31.650Z,8.10
2018-12-21T09:21:59.939Z,8.20
2018-12-21T09:24:28.483Z,8.20
2018-12-21T09:26:56.730Z,8.30
2018-12-21T09:29:25.086Z,8.40
2018-12-21T09:31:53.499Z,8.40
2018-12-21T09:34:21.744Z,8.40
2018-12-21T09:36:50.041Z,8.40
2018-12-21T09:39:18.451Z,8.30
2018-12-21T09:41:46.788Z,8.40
2018-12-21T09:44:15.111Z,8.40
2018-12-21T09:46:43.578Z,8.50
2018-12-21T09:51:54.227Z,8.50
2018-12-21T09:54:22.503Z,8.50
2018-12-21T09:56:50.865Z,8.50
2018-12-21T09:59:19.343Z,8.60
2018-12-21T10:01:47.793Z,8.60
2018-12-21T10:04:16.108Z,8.60
2018-12-21T10:06:44.359Z,8.60
2018-12-21T10:09:12.672Z,8.70
2018-12-21T10:11:40.988Z,8.80
2018-12-21T10:14:09.230Z,8.80
2018-12-21T10:16:37.897Z,8.80
2018-12-21T10:19:06.342Z,8.80
2018-12-21T10:21:34.775Z,8.90
2018-12-21T10:24:03.107Z,8.90
2018-12-21T10:26:31.366Z,8.90
2018-12-21T10:28:59.839Z,8.90
2018-12-21T10:31:28.274Z,8.90
2018-12-21T10:33:56.841Z,8.90
2018-12-21T10:36:25.191Z,8.80
2018-12-21T10:38:53.565Z,8.90
2018-12-21T10:41:21.882Z,8.90
2018-12-21T10:43:50.341Z,8.90
2018-12-21T10:46:18.740Z,9.00
2018-12-21T10:48:49.263Z,9.00
2018-12-21T10:51:17.724Z,9.00
2018-12-21T10:53:46.832Z,9.10
2018-12-21T10:56:15.373Z,9.10
2018-12-21T10:58:43.722Z,9.10
2018-12-21T11:01:12.124Z,9.20
2018-12-21T11:03:40.617Z,9.10
2018-12-21T11:06:09.850Z,9.10
2018-12-21T11:08:38.248Z,9.10
2018-12-21T11:11:07.134Z,9.20
2018-12-21T11:13:36.039Z,9.20
2018-12-21T11:16:04.714Z,9.10
2018-12-21T11:18:33.027Z,9.10
2018-12-21T11:21:02.265Z,9.20
2018-12-21T11:23:32.515Z,9.20
2018-12-21T11:26:03.893Z,9.20
2018-12-21T11:28:33.081Z,9.20
2018-12-21T11:31:01.429Z,9.30
2018-12-21T11:33:29.812Z,9.30
2018-12-21T11:35:58.183Z,9.40
2018-12-21T11:38:26.617Z,9.30
2018-12-21T11:40:56.154Z,9.10
2018-12-21T11:43:25.350Z,9.20
2018-12-21T11:45:53.815Z,9.20
2018-12-21T11:48:22.242Z,9.10
2018-12-21T11:50:50.626Z,9.00
2018-12-21T11:53:19.671Z,9.10
2018-12-21T11:55:49.127Z,9.10
2018-12-21T11:58:17.987Z,9.20
2018-12-21T12:00:46.370Z,9.10
2018-12-21T12:03:14.685Z,9.10
2018-12-21T12:05:42.894Z,9.20
2018-12-21T12:08:11.227Z,9.20
2018-12-21T12:10:39.565Z,9.20
2018-12-21T12:13:07.793Z,9.20
2018-12-21T12:15:36.191Z,9.30
2018-12-21T12:18:04.654Z,9.30
2018-12-21T12:20:32.958Z,9.30
2018-12-21T12:23:01.311Z,9.20
2018-12-21T12:25:30.497Z,9.20
2018-12-21T12:27:59.087Z,8.90
2018-12-21T12:30:27.673Z,8.90
2018-12-21T12:32:56.033Z,8.80
2018-12-21T12:35:24.348Z,8.80
2018-12-21T12:37:52.854Z,8.80
2018-12-21T12:40:21.190Z,8.90
2018-12-21T12:42:49.599Z,8.80
2018-12-21T12:45:17.837Z,8.80
2018-12-21T12:47:48.525Z,8.70
2018-12-21T12:50:16.753Z,8.60
2018-12-21T12:52:46.154Z,8.60
2018-12-21T12:55:14.630Z,8.60
2018-12-21T12:57:43.131Z,8.60
2018-12-21T13:00:12.836Z,8.50
2018-12-21T13:02:41.190Z,8.40
2018-12-21T13:05:09.880Z,8.40
2018-12-21T13:07:38.408Z,8.30
2018-12-21T13:10:09.194Z,8.30
2018-12-21T13:12:38.247Z,8.20
2018-12-21T13:15:09.928Z,8.20
2018-12-21T13:17:39.145Z,8.30
2018-12-21T13:20:09.766Z,8.30
2018-12-21T13:22:38.107Z,8.30
2018-12-21T13:25:11.421Z,8.40
2018-12-21T13:27:38.793Z,8.40
2018-12-21T13:30:11.745Z,8.40
2018-12-21T13:32:39.852Z,8.40
2018-12-21T13:41:54.881Z,8.60
2018-12-21T13:44:23.889Z,8.50
2018-12-21T13:46:52.632Z,8.60
